Air Navigation Services of Czech Republic
Airport: LKKV Updated:  24.09.2018 00:01:06  UTC
 METAR LKKV 24.09. 00:00 ...
METAR LKKV 240000Z 30015KT 9999 SCT013 BKN023 06/04 Q1017 RMK REG QNH 1004=
 TAF LKKV 23.09. 23:00 ...
TAF LKKV 232300Z 2400/2506 30013KT 9999 BKN025      TEMPO 2400/2420 31014G24KT 8000 -SHRA SCT013TCU=